sensor_id;sensor_type;location;lat;lon;timestamp;temperature;humidity
49821;DHT22;36893;52.520;13.450;2023-09-07T00:00:33;27.70;69.60
49821;DHT22;36893;52.520;13.450;2023-09-07T00:10:35;27.80;69.60
49821;DHT22;36893;52.520;13.450;2023-09-07T00:20:35;27.80;69.40
49821;DHT22;36893;52.520;13.450;2023-09-07T00:30:36;27.80;69.30
49821;DHT22;36893;52.520;13.450;2023-09-07T00:40:36;27.80;69.20
49821;DHT22;36893;52.520;13.450;2023-09-07T00:50:37;27.80;69.20
49821;DHT22;36893;52.520;13.450;2023-09-07T01:00:39;27.80;69.00
49821;DHT22;36893;52.520;13.450;2023-09-07T01:10:40;27.80;68.90
49821;DHT22;36893;52.520;13.450;2023-09-07T01:20:41;27.80;68.80
49821;DHT22;36893;52.520;13.450;2023-09-07T01:30:43;27.80;68.70
49821;DHT22;36893;52.520;13.450;2023-09-07T01:40:45;27.80;68.60
49821;DHT22;36893;52.520;13.450;2023-09-07T01:50:46;27.80;68.60
49821;DHT22;36893;52.520;13.450;2023-09-07T02:00:47;27.80;68.50
49821;DHT22;36893;52.520;13.450;2023-09-07T02:10:47;27.80;68.50
49821;DHT22;36893;52.520;13.450;2023-09-07T02:20:48;27.80;68.30
49821;DHT22;36893;52.520;13.450;2023-09-07T02:30:49;27.90;68.20
49821;DHT22;36893;52.520;13.450;2023-09-07T02:40:49;27.90;68.10
49821;DHT22;36893;52.520;13.450;2023-09-07T02:50:50;27.90;68.00
49821;DHT22;36893;52.520;13.450;2023-09-07T03:00:50;27.90;67.90
49821;DHT22;36893;52.520;13.450;2023-09-07T03:10:51;27.90;67.80
49821;DHT22;36893;52.520;13.450;2023-09-07T03:20:55;27.90;67.70
49821;DHT22;36893;52.520;13.450;2023-09-07T03:30:56;27.90;67.60
49821;DHT22;36893;52.520;13.450;2023-09-07T03:40:56;27.90;67.50
49821;DHT22;36893;52.520;13.450;2023-09-07T03:50:57;27.90;67.40
49821;DHT22;36893;52.520;13.450;2023-09-07T04:01:01;27.90;67.30
49821;DHT22;36893;52.520;13.450;2023-09-07T04:11:05;27.90;67.20
49821;DHT22;36893;52.520;13.450;2023-09-07T04:21:07;27.90;67.20
49821;DHT22;36893;52.520;13.450;2023-09-07T04:31:08;27.90;67.10
49821;DHT22;36893;52.520;13.450;2023-09-07T04:41:12;27.90;67.10
49821;DHT22;36893;52.520;13.450;2023-09-07T04:51:13;27.80;66.90
49821;DHT22;36893;52.520;13.450;2023-09-07T05:01:14;27.80;66.90
49821;DHT22;36893;52.520;13.450;2023-09-07T05:11:15;27.80;66.80
49821;DHT22;36893;52.520;13.450;2023-09-07T05:21:16;27.90;66.80
49821;DHT22;36893;52.520;13.450;2023-09-07T05:31:19;27.80;66.70
49821;DHT22;36893;52.520;13.450;2023-09-07T05:41:20;27.80;66.60
49821;DHT22;36893;52.520;13.450;2023-09-07T05:51:20;27.90;66.60
49821;DHT22;36893;52.520;13.450;2023-09-07T06:01:21;27.90;66.60
49821;DHT22;36893;52.520;13.450;2023-09-07T06:11:22;27.80;66.60
49821;DHT22;36893;52.520;13.450;2023-09-07T06:21:22;27.90;66.50
49821;DHT22;36893;52.520;13.450;2023-09-07T06:31:23;27.90;66.40
49821;DHT22;36893;52.520;13.450;2023-09-07T06:41:23;27.90;66.40
49821;DHT22;36893;52.520;13.450;2023-09-07T06:51:24;27.90;66.30
49821;DHT22;36893;52.520;13.450;2023-09-07T07:01:25;27.90;66.30
49821;DHT22;36893;52.520;13.450;2023-09-07T07:11:25;27.90;66.20
49821;DHT22;36893;52.520;13.450;2023-09-07T07:21:26;27.90;66.10
49821;DHT22;36893;52.520;13.450;2023-09-07T07:31:27;27.90;66.10
49821;DHT22;36893;52.520;13.450;2023-09-07T07:41:28;27.90;66.10
49821;DHT22;36893;52.520;13.450;2023-09-07T07:51:28;28.00;66.20
49821;DHT22;36893;52.520;13.450;2023-09-07T08:01:29;28.00;66.30
49821;DHT22;36893;52.520;13.450;2023-09-07T08:11:30;28.00;66.30
49821;DHT22;36893;52.520;13.450;2023-09-07T08:21:30;28.00;66.40
49821;DHT22;36893;52.520;13.450;2023-09-07T08:31:32;28.00;66.40
49821;DHT22;36893;52.520;13.450;2023-09-07T08:41:37;28.10;66.50
49821;DHT22;36893;52.520;13.450;2023-09-07T08:51:44;28.10;66.50
49821;DHT22;36893;52.520;13.450;2023-09-07T09:01:45;28.20;66.50
49821;DHT22;36893;52.520;13.450;2023-09-07T09:11:46;28.20;66.50
49821;DHT22;36893;52.520;13.450;2023-09-07T09:21:47;28.30;66.50
49821;DHT22;36893;52.520;13.450;2023-09-07T09:31:51;28.30;66.50
49821;DHT22;36893;52.520;13.450;2023-09-07T09:41:53;28.30;66.60
49821;DHT22;36893;52.520;13.450;2023-09-07T09:51:53;28.30;66.60
49821;DHT22;36893;52.520;13.450;2023-09-07T10:01:55;28.30;66.60
49821;DHT22;36893;52.520;13.450;2023-09-07T10:11:58;28.30;66.60
49821;DHT22;36893;52.520;13.450;2023-09-07T10:21:59;28.40;66.70
49821;DHT22;36893;52.520;13.450;2023-09-07T10:32:05;28.40;66.70
49821;DHT22;36893;52.520;13.450;2023-09-07T10:42:06;28.40;66.70
49821;DHT22;36893;52.520;13.450;2023-09-07T10:52:07;28.40;66.70
49821;DHT22;36893;52.520;13.450;2023-09-07T11:02:08;28.40;66.70
49821;DHT22;36893;52.520;13.450;2023-09-07T11:12:13;28.40;66.60
49821;DHT22;36893;52.520;13.450;2023-09-07T11:22:16;28.40;66.50
49821;DHT22;36893;52.520;13.450;2023-09-07T11:32:16;28.50;66.60
49821;DHT22;36893;52.520;13.450;2023-09-07T11:42:22;28.50;66.60
49821;DHT22;36893;52.520;13.450;2023-09-07T11:52:22;28.50;66.50
49821;DHT22;36893;52.520;13.450;2023-09-07T12:02:23;28.50;66.50
49821;DHT22;36893;52.520;13.450;2023-09-07T12:12:24;28.50;66.60
49821;DHT22;36893;52.520;13.450;2023-09-07T12:22:25;28.50;66.60
49821;DHT22;36893;52.520;13.450;2023-09-07T12:32:25;28.50;66.60
49821;DHT22;36893;52.520;13.450;2023-09-07T12:42:26;28.60;66.70
49821;DHT22;36893;52.520;13.450;2023-09-07T12:52:26;28.60;66.70
49821;DHT22;36893;52.520;13.450;2023-09-07T13:02:28;28.60;66.70
49821;DHT22;36893;52.520;13.450;2023-09-07T13:12:29;28.70;66.80
49821;DHT22;36893;52.520;13.450;2023-09-07T13:22:31;28.70;66.80
49821;DHT22;36893;52.520;13.450;2023-09-07T13:32:32;28.70;66.70
49821;DHT22;36893;52.520;13.450;2023-09-07T13:42:33;28.70;66.80
49821;DHT22;36893;52.520;13.450;2023-09-07T13:52:33;28.70;66.90
49821;DHT22;36893;52.520;13.450;2023-09-07T14:02:34;28.70;66.80
49821;DHT22;36893;52.520;13.450;2023-09-07T14:12:35;28.70;66.80
49821;DHT22;36893;52.520;13.450;2023-09-07T14:22:39;28.70;66.80
49821;DHT22;36893;52.520;13.450;2023-09-07T14:32:39;28.70;66.80
49821;DHT22;36893;52.520;13.450;2023-09-07T14:42:40;28.70;66.80
49821;DHT22;36893;52.520;13.450;2023-09-07T14:52:41;28.70;66.60
49821;DHT22;36893;52.520;13.450;2023-09-07T15:02:42;28.70;66.60
49821;DHT22;36893;52.520;13.450;2023-09-07T15:12:43;28.70;66.40
49821;DHT22;36893;52.520;13.450;2023-09-07T15:22:44;28.80;66.20
49821;DHT22;36893;52.520;13.450;2023-09-07T15:32:44;28.80;66.00
49821;DHT22;36893;52.520;13.450;2023-09-07T15:42:45;28.90;66.00
49821;DHT22;36893;52.520;13.450;2023-09-07T15:52:47;28.90;66.00
49821;DHT22;36893;52.520;13.450;2023-09-07T16:02:48;28.90;65.90
49821;DHT22;36893;52.520;13.450;2023-09-07T16:12:49;28.90;66.00
49821;DHT22;36893;52.520;13.450;2023-09-07T16:22:49;28.90;65.90
49821;DHT22;36893;52.520;13.450;2023-09-07T16:32:50;28.90;65.80
49821;DHT22;36893;52.520;13.450;2023-09-07T16:42:52;28.90;65.80
49821;DHT22;36893;52.520;13.450;2023-09-07T16:52:52;28.90;65.70
49821;DHT22;36893;52.520;13.450;2023-09-07T17:02:53;28.90;65.60
49821;DHT22;36893;52.520;13.450;2023-09-07T17:12:54;28.90;65.60
49821;DHT22;36893;52.520;13.450;2023-09-07T17:22:54;28.90;65.50
49821;DHT22;36893;52.520;13.450;2023-09-07T17:32:55;28.90;65.40
49821;DHT22;36893;52.520;13.450;2023-09-07T17:42:57;28.90;65.30
49821;DHT22;36893;52.520;13.450;2023-09-07T17:52:59;28.90;65.30
49821;DHT22;36893;52.520;13.450;2023-09-07T18:02:59;28.90;65.30
49821;DHT22;36893;52.520;13.450;2023-09-07T18:13:00;28.90;65.30
49821;DHT22;36893;52.520;13.450;2023-09-07T18:23:01;28.90;65.30
49821;DHT22;36893;52.520;13.450;2023-09-07T18:33:03;28.90;65.20
49821;DHT22;36893;52.520;13.450;2023-09-07T18:43:04;28.90;65.20
49821;DHT22;36893;52.520;13.450;2023-09-07T18:53:04;28.90;65.00
49821;DHT22;36893;52.520;13.450;2023-09-07T19:03:05;28.90;65.00
49821;DHT22;36893;52.520;13.450;2023-09-07T19:13:06;28.90;64.90
49821;DHT22;36893;52.520;13.450;2023-09-07T19:23:11;28.90;64.90
49821;DHT22;36893;52.520;13.450;2023-09-07T19:33:30;28.90;64.90
49821;DHT22;36893;52.520;13.450;2023-09-07T19:43:36;29.00;65.00
49821;DHT22;36893;52.520;13.450;2023-09-07T19:53:46;29.00;65.00
49821;DHT22;36893;52.520;13.450;2023-09-07T20:03:51;29.00;64.90
49821;DHT22;36893;52.520;13.450;2023-09-07T20:14:00;29.00;64.90
49821;DHT22;36893;52.520;13.450;2023-09-07T20:24:01;29.00;64.90
49821;DHT22;36893;52.520;13.450;2023-09-07T20:34:09;29.00;65.00
49821;DHT22;36893;52.520;13.450;2023-09-07T20:44:10;29.00;65.00
49821;DHT22;36893;52.520;13.450;2023-09-07T20:54:11;29.00;65.00
49821;DHT22;36893;52.520;13.450;2023-09-07T21:04:12;29.00;64.90
49821;DHT22;36893;52.520;13.450;2023-09-07T21:14:16;29.00;64.80
49821;DHT22;36893;52.520;13.450;2023-09-07T21:24:17;29.00;64.70
49821;DHT22;36893;52.520;13.450;2023-09-07T21:34:17;29.00;64.70
49821;DHT22;36893;52.520;13.450;2023-09-07T21:44:19;29.00;64.70
49821;DHT22;36893;52.520;13.450;2023-09-07T21:54:21;29.00;64.70
49821;DHT22;36893;52.520;13.450;2023-09-07T22:04:22;29.00;64.70
49821;DHT22;36893;52.520;13.450;2023-09-07T22:14:22;29.00;64.70
49821;DHT22;36893;52.520;13.450;2023-09-07T22:24:23;29.00;64.60
49821;DHT22;36893;52.520;13.450;2023-09-07T22:34:23;29.00;64.60
49821;DHT22;36893;52.520;13.450;2023-09-07T22:44:25;29.00;64.60
49821;DHT22;36893;52.520;13.450;2023-09-07T22:54:26;29.00;64.50
49821;DHT22;36893;52.520;13.450;2023-09-07T23:04:26;29.00;64.50
49821;DHT22;36893;52.520;13.450;2023-09-07T23:14:27;29.00;64.50
49821;DHT22;36893;52.520;13.450;2023-09-07T23:24:28;29.00;64.50
49821;DHT22;36893;52.520;13.450;2023-09-07T23:34:28;29.00;64.30
49821;DHT22;36893;52.520;13.450;2023-09-07T23:44:30;29.00;64.30
49821;DHT22;36893;52.520;13.450;2023-09-07T23:54:31;29.00;64.30
